Time;durP1;ratioP1;P1;durP2;ratioP2;P2;SDS_P1;SDS_P2;PMS_P1;PMS_P2;Temp;Humidity;BMP_temperature;BMP_pressure;BME280_temperature;BME280_humidity;BME280_pressure;Samples;Min_cycle;Max_cycle;Signal;HPM_P1;HPM_P2
2021/09/06 00:00:55;;;;;;;20.15;13.43;;;;;;;-146.90;100.00;60518.97;5033806;28;20025;-69
2021/09/06 00:03:20;;;;;;;19.42;14.10;;;;;;;-146.90;100.00;60518.97;5033376;28;20029;-70
2021/09/06 00:05:46;;;;;;;20.92;13.30;;;;;;;-146.90;100.00;60518.97;5033492;28;20025;-69
2021/09/06 00:08:11;;;;;;;20.65;13.30;;;;;;;-146.90;100.00;60518.97;5033422;28;20021;-70
2021/09/06 00:10:41;;;;;;;18.95;13.23;;;;;;;-146.90;100.00;60518.97;5032838;28;20021;-68
2021/09/06 00:13:10;;;;;;;20.40;13.32;;;;;;;-146.90;100.00;60518.97;5031936;28;20021;-67
2021/09/06 00:15:36;;;;;;;19.77;12.93;;;;;;;-146.90;100.00;60518.97;5031549;28;20033;-68
2021/09/06 00:18:02;;;;;;;25.02;14.05;;;;;;;-146.90;100.00;60518.97;5032957;28;20021;-70
2021/09/06 00:20:28;;;;;;;20.35;13.18;;;;;;;-146.90;100.00;60518.97;5032830;28;20033;-69
2021/09/06 00:22:54;;;;;;;17.40;12.35;;;;;;;-146.90;100.00;60518.97;5033261;28;20478;-69
2021/09/06 00:25:20;;;;;;;18.42;12.93;;;;;;;-146.90;100.00;60518.97;5031304;28;20033;-70
2021/09/06 00:27:46;;;;;;;17.10;12.95;;;;;;;-146.90;100.00;60518.97;5033416;28;20021;-69
2021/09/06 00:30:11;;;;;;;20.67;13.20;;;;;;;-146.90;100.00;60518.97;5031273;28;20021;-68
2021/09/06 00:32:37;;;;;;;21.33;14.20;;;;;;;-146.90;100.00;60518.97;5032649;28;20025;-69
2021/09/06 00:35:02;;;;;;;20.40;14.68;;;;;;;-146.90;100.00;60518.97;5032463;28;20021;-69
2021/09/06 00:37:28;;;;;;;22.95;13.18;;;;;;;-146.90;100.00;60518.97;5032885;28;20137;-69
2021/09/06 00:39:53;;;;;;;20.38;14.43;;;;;;;-146.90;100.00;60518.97;5032362;28;20112;-70
2021/09/06 00:42:18;;;;;;;20.20;14.55;;;;;;;-146.90;100.00;60518.97;5032236;28;20022;-67
2021/09/06 00:44:43;;;;;;;21.05;13.82;;;;;;;-146.90;100.00;60518.97;5033066;28;20033;-68
2021/09/06 00:47:09;;;;;;;19.52;14.23;;;;;;;-146.90;100.00;60518.97;5032615;28;20067;-70
2021/09/06 00:49:34;;;;;;;21.38;14.25;;;;;;;-146.90;100.00;60518.97;5048720;28;20680;-68
2021/09/06 00:51:59;;;;;;;21.30;15.52;;;;;;;-146.90;100.00;60518.97;5052187;28;20079;-68
2021/09/06 00:54:25;;;;;;;20.42;15.45;;;;;;;-146.90;100.00;60518.97;5050365;28;20059;-68
2021/09/06 00:56:51;;;;;;;20.73;14.55;;;;;;;-146.90;100.00;60518.97;5051870;28;20470;-69
2021/09/06 00:59:16;;;;;;;20.83;15.27;;;;;;;-146.90;100.00;60518.97;5051368;28;20025;-69
2021/09/06 01:01:41;;;;;;;22.17;15.45;;;;;;;-146.90;100.00;60518.97;5051810;28;20041;-68
2021/09/06 01:04:07;;;;;;;19.73;14.57;;;;;;;-146.90;100.00;60518.97;5052269;28;20390;-69
2021/09/06 01:06:32;;;;;;;17.33;13.38;;;;;;;-146.90;100.00;60518.97;5051985;28;20501;-68
2021/09/06 01:08:57;;;;;;;20.38;15.45;;;;;;;-146.90;100.00;60518.97;5052008;28;20072;-68
2021/09/06 01:11:23;;;;;;;20.55;15.93;;;;;;;-146.90;100.00;60518.97;5051838;28;20470;-68
2021/09/06 01:13:48;;;;;;;21.75;15.27;;;;;;;-146.90;100.00;60518.97;5050722;28;20417;-68
2021/09/06 01:16:14;;;;;;;20.05;15.25;;;;;;;-146.90;100.00;60518.97;5050415;28;20055;-70
2021/09/06 01:18:39;;;;;;;25.52;16.58;;;;;;;-146.90;100.00;60518.97;5052138;28;20698;-68
2021/09/06 01:21:04;;;;;;;22.77;15.70;;;;;;;-146.90;100.00;60518.97;5050447;28;20151;-69
2021/09/06 01:23:30;;;;;;;24.42;16.05;;;;;;;-146.90;100.00;60518.97;5051538;28;20497;-68
2021/09/06 01:25:55;;;;;;;22.10;14.77;;;;;;;-146.90;100.00;60518.97;5051727;28;20075;-70
2021/09/06 01:28:22;;;;;;;21.60;14.98;;;;;;;-146.90;100.00;60518.97;5051521;28;20032;-68
2021/09/06 01:30:47;;;;;;;23.38;14.55;;;;;;;-146.90;100.00;60518.97;5051539;28;20017;-70
2021/09/06 01:33:12;;;;;;;20.92;14.48;;;;;;;-146.90;100.00;60518.97;5051302;28;20032;-68
2021/09/06 01:35:38;;;;;;;23.35;15.73;;;;;;;-146.90;100.00;60518.97;5051932;28;20020;-68
2021/09/06 01:38:03;;;;;;;22.58;15.63;;;;;;;-146.90;100.00;60518.97;5051492;28;20032;-68
2021/09/06 01:40:28;;;;;;;17.98;14.80;;;;;;;-146.90;100.00;60518.97;5052040;28;20040;-68
2021/09/06 01:42:54;;;;;;;25.17;15.55;;;;;;;-146.90;100.00;60518.97;5050732;28;20108;-70
2021/09/06 01:45:20;;;;;;;21.33;15.07;;;;;;;-146.90;100.00;60518.97;5051732;28;20079;-68
2021/09/06 01:47:45;;;;;;;25.85;15.68;;;;;;;-146.90;100.00;60518.97;5050647;28;20025;-69
2021/09/06 01:50:11;;;;;;;20.75;15.23;;;;;;;-146.90;100.00;60518.97;5050709;28;20032;-69
2021/09/06 01:52:36;;;;;;;22.60;15.98;;;;;;;-146.90;100.00;60518.97;5051789;28;20040;-68
2021/09/06 01:55:02;;;;;;;23.60;16.67;;;;;;;-146.90;100.00;60518.97;5050614;28;20373;-69
2021/09/06 01:57:28;;;;;;;22.90;15.68;;;;;;;-146.90;100.00;60518.97;5050108;28;20025;-68
2021/09/06 01:59:53;;;;;;;23.23;15.82;;;;;;;-146.90;100.00;60518.97;5051047;28;20021;-69
2021/09/06 02:02:18;;;;;;;27.77;15.68;;;;;;;-146.90;100.00;60518.97;5051171;28;20078;-68
2021/09/06 02:04:43;;;;;;;23.55;16.40;;;;;;;-146.90;100.00;60518.97;5050676;28;20021;-68
2021/09/06 02:07:09;;;;;;;23.35;15.48;;;;;;;-146.90;100.00;60518.97;5050998;28;20024;-70
2021/09/06 02:09:35;;;;;;;23.35;16.00;;;;;;;-146.90;100.00;60518.97;5049921;28;20025;-68
2021/09/06 02:12:00;;;;;;;24.85;16.27;;;;;;;-146.90;100.00;60518.97;5050786;28;20104;-68
2021/09/06 02:14:25;;;;;;;22.77;15.23;;;;;;;-146.90;100.00;60518.97;5050486;28;20031;-70
2021/09/06 02:16:51;;;;;;;21.83;15.52;;;;;;;-146.90;100.00;60518.97;5050801;28;20386;-69
2021/09/06 02:19:16;;;;;;;20.35;15.35;;;;;;;-146.90;100.00;60518.97;5050410;28;20143;-69
2021/09/06 02:21:41;;;;;;;23.70;15.90;;;;;;;-146.90;100.00;60518.97;5050647;28;20016;-69
2021/09/06 02:24:07;;;;;;;22.60;15.75;;;;;;;-146.90;100.00;60518.97;5050653;28;20029;-68
2021/09/06 02:26:33;;;;;;;25.38;15.25;;;;;;;-146.90;100.00;60518.97;5049326;28;20049;-69
2021/09/06 02:28:59;;;;;;;22.15;15.55;;;;;;;-146.90;100.00;60518.97;5050261;28;20391;-69
2021/09/06 02:31:24;;;;;;;22.73;15.95;;;;;;;-146.90;100.00;60518.97;5050760;28;20028;-68
2021/09/06 02:33:49;;;;;;;23.00;15.43;;;;;;;-146.90;100.00;60518.97;5050002;28;20025;-68
2021/09/06 02:36:14;;;;;;;23.23;16.10;;;;;;;-146.90;100.00;60518.97;5050365;28;20035;-69
2021/09/06 02:38:40;;;;;;;21.60;15.25;;;;;;;-146.90;100.00;60518.97;5050045;28;20522;-71
2021/09/06 02:41:05;;;;;;;25.95;15.88;;;;;;;-146.90;100.00;60518.97;5050357;28;20025;-69
2021/09/06 02:43:31;;;;;;;21.27;15.48;;;;;;;-146.90;100.00;60518.97;5050221;28;20060;-69
2021/09/06 02:45:56;;;;;;;23.90;15.63;;;;;;;-146.90;100.00;60518.97;5048516;28;20033;-68
2021/09/06 02:48:21;;;;;;;22.83;15.52;;;;;;;-146.90;100.00;60518.97;5050146;28;20025;-69
2021/09/06 02:50:47;;;;;;;25.83;16.23;;;;;;;-146.90;100.00;60518.97;5050038;28;20071;-68
2021/09/06 02:53:12;;;;;;;23.80;15.70;;;;;;;-146.90;100.00;60518.97;5050225;28;20020;-68
2021/09/06 02:55:37;;;;;;;28.98;16.00;;;;;;;-146.90;100.00;60518.97;5050160;28;20071;-70
2021/09/06 02:58:03;;;;;;;24.45;15.95;;;;;;;-146.90;100.00;60518.97;5050625;28;20021;-68
2021/09/06 03:00:28;;;;;;;23.80;15.13;;;;;;;-146.90;100.00;60518.97;5050081;28;20025;-68
2021/09/06 03:02:54;;;;;;;23.13;15.65;;;;;;;-146.90;100.00;60518.97;5050209;28;20390;-67
2021/09/06 03:05:19;;;;;;;20.05;15.40;;;;;;;-146.90;100.00;60518.97;5049993;28;20029;-69
2021/09/06 03:07:44;;;;;;;23.50;15.43;;;;;;;-146.90;100.00;60518.97;5048747;28;20056;-69
2021/09/06 03:10:10;;;;;;;20.85;15.43;;;;;;;-146.90;100.00;60518.97;5049567;28;20535;-68
2021/09/06 03:12:35;;;;;;;22.55;15.05;;;;;;;-146.90;100.00;60518.97;5048756;28;20492;-68
2021/09/06 03:15:01;;;;;;;25.00;15.65;;;;;;;-146.90;100.00;60518.97;5049358;28;20466;-69
2021/09/06 03:17:26;;;;;;;22.02;15.27;;;;;;;-146.90;100.00;60518.97;5049761;28;20035;-69
2021/09/06 03:19:51;;;;;;;24.27;15.48;;;;;;;-146.90;100.00;60518.97;5048273;28;20021;-72
2021/09/06 03:22:18;;;;;;;21.50;15.70;;;;;;;-146.90;100.00;60518.97;5049595;28;20098;-70
2021/09/06 03:24:43;;;;;;;24.27;16.17;;;;;;;-146.90;100.00;60518.97;5049624;28;20017;-69
2021/09/06 03:27:09;;;;;;;22.50;15.90;;;;;;;-146.90;100.00;60518.97;5049697;28;20081;-67
2021/09/06 03:29:34;;;;;;;22.17;14.82;;;;;;;-146.90;100.00;60518.97;5049483;28;20474;-69
2021/09/06 03:32:00;;;;;;;20.10;14.88;;;;;;;-146.90;100.00;60518.97;5048199;28;20040;-69
2021/09/06 03:34:25;;;;;;;24.45;14.85;;;;;;;-146.90;100.00;60518.97;5049368;28;20360;-68
2021/09/06 03:36:50;;;;;;;23.35;16.25;;;;;;;-146.90;100.00;60518.97;5049397;28;20036;-68
2021/09/06 03:39:16;;;;;;;22.67;15.18;;;;;;;-146.90;100.00;60518.97;5049577;28;20047;-70
2021/09/06 03:41:41;;;;;;;22.30;15.18;;;;;;;-146.90;100.00;60518.97;5049422;28;20108;-67
2021/09/06 03:44:06;;;;;;;26.42;16.40;;;;;;;-146.90;100.00;60518.97;5049607;28;20351;-68
2021/09/06 03:46:32;;;;;;;22.42;15.35;;;;;;;-146.90;100.00;60518.97;5049082;28;20029;-70
2021/09/06 03:48:57;;;;;;;24.45;15.82;;;;;;;-146.90;100.00;60518.97;5049410;28;20108;-68
2021/09/06 03:51:23;;;;;;;21.88;16.00;;;;;;;-146.90;100.00;60518.97;5048041;28;20029;-68
2021/09/06 03:53:48;;;;;;;24.27;15.80;;;;;;;-146.90;100.00;60518.97;5049479;28;20060;-68
2021/09/06 03:56:13;;;;;;;23.33;14.98;;;;;;;-146.90;100.00;60518.97;5049362;28;20040;-69
2021/09/06 03:58:39;;;;;;;25.30;15.48;;;;;;;-146.90;100.00;60518.97;5049771;28;20490;-70
2021/09/06 04:01:04;;;;;;;23.80;16.30;;;;;;;-146.90;100.00;60518.97;5049883;28;20032;-68
2021/09/06 04:03:29;;;;;;;22.23;14.88;;;;;;;-146.90;100.00;60518.97;5050510;28;20552;-68
2021/09/06 04:05:55;;;;;;;23.27;15.82;;;;;;;-146.90;100.00;60518.97;5050148;28;20478;-67
2021/09/06 04:08:20;;;;;;;24.42;15.80;;;;;;;-146.90;100.00;60518.97;5049203;28;20100;-68
2021/09/06 04:10:45;;;;;;;24.48;16.10;;;;;;;-146.90;100.00;60518.97;5049339;28;20021;-69
2021/09/06 04:13:11;;;;;;;25.25;15.98;;;;;;;-146.90;100.00;60518.97;5047520;28;20029;-68
2021/09/06 04:15:36;;;;;;;23.63;17.05;;;;;;;-146.90;100.00;60518.97;5047803;28;20123;-69
2021/09/06 04:18:02;;;;;;;23.92;16.65;;;;;;;-146.90;100.00;60518.97;5048765;28;20422;-69
2021/09/06 04:20:27;;;;;;;22.40;15.82;;;;;;;-146.90;100.00;60518.97;5048770;28;20033;-67
2021/09/06 04:22:53;;;;;;;22.60;16.27;;;;;;;-146.90;100.00;60518.97;5049056;28;20028;-68
2021/09/06 04:25:18;;;;;;;27.00;16.67;;;;;;;-146.90;100.00;60518.97;5047632;28;20031;-69
2021/09/06 04:27:44;;;;;;;23.10;15.82;;;;;;;-146.90;100.00;60518.97;5047470;28;20029;-69
2021/09/06 04:30:09;;;;;;;24.75;16.05;;;;;;;-146.90;100.00;60518.97;5049203;28;20013;-68
2021/09/06 04:32:35;;;;;;;24.85;15.98;;;;;;;-146.90;100.00;60518.97;5048480;28;20053;-68
2021/09/06 04:35:00;;;;;;;21.65;15.73;;;;;;;-146.90;100.00;60518.97;5052362;28;20561;-69
2021/09/06 04:37:26;;;;;;;24.55;16.27;;;;;;;-146.90;100.00;60518.97;5052331;28;20021;-68
2021/09/06 04:39:52;;;;;;;22.20;14.80;;;;;;;-146.90;100.00;60518.97;5052476;28;20394;-69
2021/09/06 04:42:18;;;;;;;29.60;16.65;;;;;;;-146.90;100.00;60518.97;5052219;28;20025;-69
2021/09/06 04:44:43;;;;;;;23.92;15.23;;;;;;;-146.90;100.00;60518.97;5051990;28;20391;-70
2021/09/06 04:47:08;;;;;;;23.58;16.20;;;;;;;-146.90;100.00;60518.97;5052099;28;20025;-68
2021/09/06 04:49:33;;;;;;;25.48;16.45;;;;;;;-146.90;100.00;60518.97;5052124;28;20029;-69
2021/09/06 04:52:00;;;;;;;33.28;17.10;;;;;;;-146.90;100.00;60518.97;5051627;28;20055;-69
2021/09/06 04:54:25;;;;;;;23.80;16.30;;;;;;;-146.90;100.00;60518.97;5053032;28;20107;-70
2021/09/06 04:56:51;;;;;;;21.70;15.13;;;;;;;-146.90;100.00;60518.97;5052850;28;20079;-69
2021/09/06 04:59:16;;;;;;;23.63;16.08;;;;;;;-146.90;100.00;60518.97;5051621;28;20029;-70
2021/09/06 05:01:42;;;;;;;23.98;15.60;;;;;;;-146.90;100.00;60518.97;5052244;28;20027;-69
2021/09/06 05:04:07;;;;;;;25.10;15.85;;;;;;;-146.90;100.00;60518.97;5051693;28;20025;-68
2021/09/06 05:06:32;;;;;;;23.98;15.73;;;;;;;-146.90;100.00;60518.97;5051930;28;20119;-69
2021/09/06 05:08:58;;;;;;;23.42;16.00;;;;;;;-146.90;100.00;60518.97;5051404;28;20065;-69
2021/09/06 05:11:24;;;;;;;22.02;14.38;;;;;;;-146.90;100.00;60518.97;5051491;28;20421;-68
2021/09/06 05:13:49;;;;;;;25.52;15.32;;;;;;;-146.90;100.00;60518.97;5050095;28;20021;-70
2021/09/06 05:16:16;;;;;;;24.25;16.40;;;;;;;-146.90;100.00;60518.97;5051841;28;20110;-70
2021/09/06 05:18:44;;;;;;;22.92;15.68;;;;;;;-146.90;100.00;60518.97;5049847;28;20493;-68
2021/09/06 05:21:09;;;;;;;23.88;15.23;;;;;;;-146.90;100.00;60518.97;5051537;28;20025;-68
2021/09/06 05:23:34;;;;;;;25.27;15.75;;;;;;;-146.90;100.00;60518.97;5051426;28;20419;-69
2021/09/06 05:26:00;;;;;;;21.25;15.35;;;;;;;-146.90;100.00;60518.97;5050137;28;20039;-69
2021/09/06 05:28:25;;;;;;;21.40;15.18;;;;;;;-146.90;100.00;60518.97;5051486;28;20032;-69
2021/09/06 05:30:50;;;;;;;25.45;15.82;;;;;;;-146.90;100.00;60518.97;5051286;28;20023;-68
2021/09/06 05:33:16;;;;;;;22.23;15.55;;;;;;;-146.90;100.00;60518.97;5051591;28;20104;-69
2021/09/06 05:35:41;;;;;;;22.90;15.93;;;;;;;-146.90;100.00;60518.97;5051195;28;20120;-70
2021/09/06 05:38:08;;;;;;;20.63;15.30;;;;;;;-146.90;100.00;60518.97;5051108;28;20025;-69
2021/09/06 05:40:33;;;;;;;24.70;15.60;;;;;;;-146.90;100.00;60518.97;5050796;28;20417;-69
2021/09/06 05:42:59;;;;;;;23.75;14.88;;;;;;;-146.90;100.00;60518.97;5051239;28;20057;-68
2021/09/06 05:45:24;;;;;;;21.95;14.70;;;;;;;-146.90;100.00;60518.97;5049733;28;20033;-69
2021/09/06 05:47:49;;;;;;;21.58;14.68;;;;;;;-146.90;100.00;60518.97;5051516;28;20053;-69
2021/09/06 05:50:18;;;;;;;24.13;14.68;;;;;;;-146.90;100.00;60518.97;5051072;28;20021;-68
2021/09/06 05:52:44;;;;;;;21.63;15.30;;;;;;;-146.90;100.00;60518.97;5051024;28;20029;-68
2021/09/06 05:55:11;;;;;;;24.45;15.10;;;;;;;-146.90;100.00;60518.97;5050371;28;20406;-68
2021/09/06 05:57:36;;;;;;;19.75;14.07;;;;;;;-146.90;100.00;60518.97;5033046;28;20320;-69
2021/09/06 06:00:02;;;;;;;20.10;14.48;;;;;;;-146.90;100.00;60518.97;5050122;28;20021;-69
2021/09/06 06:02:28;;;;;;;20.08;15.05;;;;;;;-146.90;100.00;60518.97;5050965;28;20028;-70
2021/09/06 06:04:53;;;;;;;21.25;14.82;;;;;;;-146.90;100.00;60518.97;5050329;28;20029;-70
2021/09/06 06:07:18;;;;;;;22.30;14.80;;;;;;;-146.90;100.00;60518.97;5051097;28;20036;-69
2021/09/06 06:09:45;;;;;;;19.48;13.88;;;;;;;-146.90;100.00;60518.97;5050665;28;20032;-70
2021/09/06 06:12:11;;;;;;;19.20;14.07;;;;;;;-146.90;100.00;60518.97;5050845;28;20517;-69
2021/09/06 06:14:37;;;;;;;21.38;13.88;;;;;;;-146.90;100.00;60518.97;5050889;28;20028;-68
2021/09/06 06:17:02;;;;;;;19.27;13.40;;;;;;;-146.90;100.00;60518.97;5049397;28;20035;-69
2021/09/06 06:19:28;;;;;;;23.90;14.73;;;;;;;-146.90;100.00;60518.97;5051373;28;20496;-71
2021/09/06 06:21:53;;;;;;;23.27;15.38;;;;;;;-146.90;100.00;60518.97;5050803;28;20025;-69
2021/09/06 06:24:18;;;;;;;20.73;14.15;;;;;;;-146.90;100.00;60518.97;5050605;28;20082;-70
2021/09/06 06:26:44;;;;;;;23.45;14.88;;;;;;;-146.90;100.00;60518.97;5050656;28;20028;-70
2021/09/06 06:29:09;;;;;;;20.77;14.43;;;;;;;-146.90;100.00;60518.97;5050643;28;20021;-69
2021/09/06 06:31:34;;;;;;;22.52;14.73;;;;;;;-146.90;100.00;60518.97;5050031;28;20440;-71
2021/09/06 06:34:00;;;;;;;20.20;13.80;;;;;;;-146.90;100.00;60518.97;5049790;28;20467;-68
2021/09/06 06:36:25;;;;;;;18.85;14.10;;;;;;;-146.90;100.00;60518.97;5050329;28;20037;-69
2021/09/06 06:38:52;;;;;;;23.67;14.88;;;;;;;-146.90;100.00;60518.97;5050005;28;20450;-69
2021/09/06 06:41:17;;;;;;;19.63;15.40;;;;;;;-146.90;100.00;60518.97;5048200;28;20535;-70
2021/09/06 06:43:43;;;;;;;22.02;15.10;;;;;;;-146.90;100.00;60518.97;5049822;28;20120;-70
2021/09/06 06:46:10;;;;;;;27.02;15.48;;;;;;;-146.90;100.00;60518.97;5049286;28;20389;-69
2021/09/06 06:48:35;;;;;;;23.65;15.30;;;;;;;-146.90;100.00;60518.97;5031692;28;20030;-70
2021/09/06 06:51:00;;;;;;;22.85;16.25;;;;;;;-146.90;100.00;60518.97;5049037;28;20066;-69
2021/09/06 06:53:26;;;;;;;22.88;15.68;;;;;;;-146.90;100.00;60518.97;5050397;28;20028;-69
2021/09/06 06:55:51;;;;;;;20.98;15.95;;;;;;;-146.90;100.00;60518.97;5050429;28;20498;-69
2021/09/06 06:58:16;;;;;;;22.38;16.00;;;;;;;-146.90;100.00;60518.97;5049548;28;20032;-68
2021/09/06 07:00:42;;;;;;;27.85;16.83;;;;;;;-146.90;100.00;60518.97;5049580;28;20116;-72
2021/09/06 07:03:07;;;;;;;25.20;15.82;;;;;;;-146.90;100.00;60518.97;5049449;28;20060;-69
2021/09/06 07:05:33;;;;;;;27.02;17.02;;;;;;;-146.90;100.00;60518.97;5049908;28;20094;-69
2021/09/06 07:07:58;;;;;;;25.67;17.90;;;;;;;-146.90;100.00;60518.97;5049393;28;20024;-68
2021/09/06 07:10:24;;;;;;;23.13;17.05;;;;;;;-146.90;100.00;60518.97;5049639;28;20025;-69
2021/09/06 07:12:49;;;;;;;26.10;17.75;;;;;;;-146.90;100.00;60518.97;5049417;28;20033;-70
2021/09/06 07:15:15;;;;;;;34.08;18.55;;;;;;;-146.90;100.00;60518.97;5047868;28;20021;-71
2021/09/06 07:17:40;;;;;;;33.03;18.88;;;;;;;-146.90;100.00;60518.97;5047876;28;20029;-69
2021/09/06 07:20:06;;;;;;;26.73;18.20;;;;;;;-146.90;100.00;60518.97;5047812;28;20065;-69
2021/09/06 07:22:32;;;;;;;24.48;17.80;;;;;;;-146.90;100.00;60518.97;5048938;28;20029;-71
2021/09/06 07:24:58;;;;;;;28.23;18.60;;;;;;;-146.90;100.00;60518.97;5049463;28;20166;-69
2021/09/06 07:27:24;;;;;;;29.52;19.00;;;;;;;-146.90;100.00;60518.97;5049123;28;20393;-70
2021/09/06 07:29:49;;;;;;;29.45;19.10;;;;;;;-146.90;100.00;60518.97;5047897;28;20104;-70
2021/09/06 07:32:14;;;;;;;29.75;18.63;;;;;;;-146.90;100.00;60518.97;5049347;28;20508;-69
2021/09/06 07:34:40;;;;;;;31.08;19.95;;;;;;;-146.90;100.00;60518.97;5049043;28;20021;-70
2021/09/06 07:37:06;;;;;;;25.83;19.08;;;;;;;-146.90;100.00;60518.97;5049164;28;20438;-70
2021/09/06 07:39:32;;;;;;;31.60;20.10;;;;;;;-146.90;100.00;60518.97;5048875;28;20371;-72
2021/09/06 07:41:58;;;;;;;26.65;19.42;;;;;;;-146.90;100.00;60518.97;5049445;28;20075;-69
2021/09/06 07:44:23;;;;;;;32.55;19.80;;;;;;;-146.90;100.00;60518.97;5048602;28;20044;-68
2021/09/06 07:46:50;;;;;;;27.23;19.42;;;;;;;-146.90;100.00;60518.97;5042029;28;20483;-70
2021/09/06 07:49:15;;;;;;;27.20;17.73;;;;;;;-146.90;100.00;60518.97;5026875;28;20029;-70
2021/09/06 07:51:41;;;;;;;27.30;17.65;;;;;;;-146.90;100.00;60518.97;5028099;28;20500;-69
2021/09/06 07:54:06;;;;;;;26.25;18.08;;;;;;;-146.90;100.00;60518.97;5028211;28;20478;-70
2021/09/06 07:56:32;;;;;;;28.35;18.67;;;;;;;-146.90;100.00;60518.97;5027068;28;20029;-68
2021/09/06 07:58:57;;;;;;;30.48;18.70;;;;;;;-146.90;100.00;60518.97;5028842;28;20144;-69
2021/09/06 08:01:23;;;;;;;31.60;19.92;;;;;;;-146.90;100.00;60518.97;5029023;28;20029;-68
2021/09/06 08:03:48;;;;;;;22.75;16.13;;;;;;;-146.90;100.00;60518.97;5028308;28;20053;-69
2021/09/06 08:06:13;;;;;;;27.95;17.85;;;;;;;-146.90;100.00;60518.97;5029255;28;20359;-69
2021/09/06 08:08:39;;;;;;;30.25;19.63;;;;;;;-146.90;100.00;60518.97;5029208;28;20022;-67
2021/09/06 08:11:04;;;;;;;29.60;20.20;;;;;;;-146.90;100.00;60518.97;5031258;28;20022;-69
2021/09/06 08:13:29;;;;;;;30.08;20.58;;;;;;;-146.90;100.00;60518.97;5032460;28;20060;-71
2021/09/06 08:15:55;;;;;;;32.40;20.50;;;;;;;-146.90;100.00;60518.97;5032440;28;20032;-70
2021/09/06 08:18:20;;;;;;;43.80;20.77;;;;;;;-146.90;100.00;60518.97;5032732;28;20070;-69
2021/09/06 08:20:45;;;;;;;28.13;19.85;;;;;;;-146.90;100.00;60518.97;5032371;28;20034;-69
2021/09/06 08:23:11;;;;;;;38.78;20.88;;;;;;;-146.90;100.00;60518.97;5032305;28;20029;-71
2021/09/06 08:25:36;;;;;;;39.88;19.77;;;;;;;-146.90;100.00;60518.97;5031127;28;20017;-70
2021/09/06 08:28:02;;;;;;;34.45;20.23;;;;;;;-146.90;100.00;60518.97;5031182;28;20538;-70
2021/09/06 08:30:27;;;;;;;32.78;19.15;;;;;;;-146.90;100.00;60518.97;5032154;28;20023;-69
2021/09/06 08:32:52;;;;;;;32.72;20.08;;;;;;;-146.90;100.00;60518.97;5032553;28;20070;-71
2021/09/06 08:35:18;;;;;;;30.67;19.77;;;;;;;-146.90;100.00;60518.97;5032554;28;20069;-71
2021/09/06 08:37:43;;;;;;;33.60;19.83;;;;;;;-146.90;100.00;60518.97;5033001;28;20112;-70
2021/09/06 08:40:10;;;;;;;30.33;18.98;;;;;;;-146.90;100.00;60518.97;5032537;28;20021;-71
2021/09/06 08:42:37;;;;;;;26.13;18.15;;;;;;;-146.90;100.00;60518.97;5033334;28;20049;-69
2021/09/06 08:45:05;;;;;;;26.27;18.45;;;;;;;-146.90;100.00;60518.97;5032586;28;20112;-69
2021/09/06 08:47:32;;;;;;;29.17;18.85;;;;;;;-146.90;100.00;60518.97;5032831;28;20032;-71
2021/09/06 08:49:57;;;;;;;26.58;17.70;;;;;;;-146.90;100.00;60518.97;5014807;28;20108;-69
2021/09/06 08:52:22;;;;;;;29.75;18.65;;;;;;;-146.90;100.00;60518.97;5032465;28;20027;-69
2021/09/06 08:54:48;;;;;;;29.27;19.13;;;;;;;-146.90;100.00;60518.97;5032832;28;20026;-70
2021/09/06 08:57:13;;;;;;;26.70;17.83;;;;;;;-146.90;100.00;60518.97;5032722;28;20029;-69
2021/09/06 08:59:40;;;;;;;28.92;15.73;;;;;;;-146.90;100.00;60518.97;5033522;28;20528;-69
2021/09/06 09:02:06;;;;;;;20.65;14.82;;;;;;;-146.90;100.00;60518.97;5031764;28;20422;-70
2021/09/06 09:04:32;;;;;;;23.48;15.82;;;;;;;-146.90;100.00;60518.97;5031865;28;20034;-70
2021/09/06 09:07:00;;;;;;;21.90;15.05;;;;;;;-146.90;100.00;60518.97;5032940;28;20029;-69
2021/09/06 09:09:35;;;;;;;24.73;14.77;;;;;;;-146.90;100.00;60518.97;5033172;28;20021;-70
2021/09/06 09:12:10;;;;;;;19.55;14.57;;;;;;;-146.90;100.00;60518.97;5032432;28;20101;-68
2021/09/06 09:14:38;;;;;;;20.50;15.18;;;;;;;-146.90;100.00;60518.97;5032403;28;20121;-70
2021/09/06 09:17:04;;;;;;;21.45;14.27;;;;;;;-146.90;100.00;60518.97;5031741;28;20025;-70
2021/09/06 09:19:30;;;;;;;22.33;14.18;;;;;;;-146.90;100.00;60518.97;5031743;28;20026;-70
2021/09/06 09:21:57;;;;;;;19.30;14.85;;;;;;;-146.90;100.00;60518.97;5031500;28;20143;-71
2021/09/06 09:24:24;;;;;;;21.00;15.07;;;;;;;-146.90;100.00;60518.97;5031779;28;20036;-69
2021/09/06 09:27:00;;;;;;;22.50;16.00;;;;;;;-146.90;100.00;60518.97;5031714;28;20036;-71
2021/09/06 09:29:26;;;;;;;20.52;12.18;;;;;;;-146.90;100.00;60518.97;5031749;28;20110;-69
2021/09/06 09:31:53;;;;;;;21.75;14.10;;;;;;;-146.90;100.00;60518.97;5029999;28;20036;-72
2021/09/06 09:34:19;;;;;;;18.67;12.70;;;;;;;-146.90;100.00;60518.97;5030831;28;20098;-70
2021/09/06 09:36:45;;;;;;;20.63;13.73;;;;;;;-146.90;100.00;60518.97;5030494;28;20017;-70
2021/09/06 09:39:18;;;;;;;23.42;14.23;;;;;;;-146.90;100.00;60518.97;5031679;28;20032;-70
2021/09/06 09:41:44;;;;;;;;;;;;;;;-146.90;100.00;60518.97;5032129;28;20028;-71
2021/09/06 09:44:10;;;;;;;18.42;12.45;;;;;;;-146.90;100.00;60518.97;5031510;28;20333;-71
2021/09/06 09:46:36;;;;;;;16.35;11.18;;;;;;;-146.90;100.00;60518.97;5030248;28;20114;-70
2021/09/06 09:49:28;;;;;;;17.38;12.15;;;;;;;-146.90;100.00;60518.97;5031278;28;20372;-70
2021/09/06 09:51:54;;;;;;;20.02;11.57;;;;;;;-146.90;100.00;60518.97;5028694;28;20128;-71
2021/09/06 09:54:20;;;;;;;19.40;12.02;;;;;;;-146.90;100.00;60518.97;5031157;28;20124;-69
2021/09/06 09:56:46;;;;;;;17.92;10.90;;;;;;;-146.90;100.00;60518.97;5031420;28;20104;-69
2021/09/06 09:59:12;;;;;;;16.15;10.45;;;;;;;-146.90;100.00;60518.97;5029477;28;20025;-69
2021/09/06 10:01:59;;;;;;;13.82;9.77;;;;;;;-146.90;100.00;60518.97;5014062;28;20379;-70
2021/09/06 10:04:29;;;;;;;19.00;10.70;;;;;;;-146.90;100.00;60518.97;5031115;28;20290;-69
2021/09/06 10:06:56;;;;;;;12.75;9.38;;;;;;;-146.90;100.00;60518.97;5029494;28;20087;-69
2021/09/06 10:09:21;;;;;;;17.02;9.77;;;;;;;-146.90;100.00;60518.97;5030273;28;20037;-72
2021/09/06 10:11:48;;;;;;;14.13;9.25;;;;;;;-146.90;100.00;60518.97;5030647;28;20025;-70
2021/09/06 10:14:32;;;;;;;19.15;11.55;;;;;;;-146.90;100.00;60518.97;5030023;28;20459;-70
2021/09/06 10:17:05;;;;;;;14.80;9.93;;;;;;;-146.90;100.00;60518.97;5030719;28;20036;-70
2021/09/06 10:19:38;;;;;;;18.08;10.30;;;;;;;-146.90;100.00;60518.97;5028611;28;20057;-70
2021/09/06 10:22:03;;;;;;;19.80;10.32;;;;;;;-146.90;100.00;60518.97;5030105;28;20035;-70
2021/09/06 10:24:29;;;;;;;16.25;10.48;;;;;;;-146.90;100.00;60518.97;5028440;28;20390;-70
2021/09/06 10:27:03;;;;;;;17.40;10.20;;;;;;;-146.90;100.00;60518.97;5030494;28;20055;-72
2021/09/06 10:29:28;;;;;;;19.05;12.20;;;;;;;-146.90;100.00;60518.97;5030103;28;20021;-70
2021/09/06 10:31:59;;;;;;;19.30;11.80;;;;;;;-146.90;100.00;60518.97;5029637;28;20031;-71
2021/09/06 10:34:25;;;;;;;18.33;11.15;;;;;;;-146.90;100.00;60518.97;5028393;28;20276;-71
2021/09/06 10:36:58;;;;;;;16.17;10.65;;;;;;;-146.90;100.00;60518.97;5030046;28;20100;-70
2021/09/06 10:39:23;;;;;;;18.77;11.07;;;;;;;-146.90;100.00;60518.97;5029545;28;20063;-70
2021/09/06 10:41:50;;;;;;;17.98;10.82;;;;;;;-146.90;100.00;60518.97;5029074;28;20056;-70
2021/09/06 10:44:20;;;;;;;17.38;11.02;;;;;;;-146.90;100.00;60518.97;5029356;28;20104;-70
2021/09/06 10:46:57;;;;;;;19.33;12.02;;;;;;;-146.90;100.00;60518.97;5029805;28;20033;-70
2021/09/06 10:49:25;;;;;;;22.10;12.15;;;;;;;-146.90;100.00;60518.97;5029607;28;20032;-70